sensor_id;sensor_type;location;lat;lon;timestamp;temperature;humidity
8676;DHT22;4375;52.486;13.424;2024-03-02T00:02:11;9.40;99.90
8676;DHT22;4375;52.486;13.424;2024-03-02T00:04:37;9.50;99.90
8676;DHT22;4375;52.486;13.424;2024-03-02T00:07:03;9.50;99.90
8676;DHT22;4375;52.486;13.424;2024-03-02T00:09:29;9.50;99.90
8676;DHT22;4375;52.486;13.424;2024-03-02T00:11:55;9.50;99.90
8676;DHT22;4375;52.486;13.424;2024-03-02T00:14:22;9.50;99.90
8676;DHT22;4375;52.486;13.424;2024-03-02T00:16:50;9.50;99.90
8676;DHT22;4375;52.486;13.424;2024-03-02T00:19:16;9.50;99.90
8676;DHT22;4375;52.486;13.424;2024-03-02T00:21:42;9.50;99.90
8676;DHT22;4375;52.486;13.424;2024-03-02T00:24:21;9.50;99.90
8676;DHT22;4375;52.486;13.424;2024-03-02T00:26:50;9.50;99.90
8676;DHT22;4375;52.486;13.424;2024-03-02T00:29:17;9.50;99.90
8676;DHT22;4375;52.486;13.424;2024-03-02T00:31:44;9.50;99.90
8676;DHT22;4375;52.486;13.424;2024-03-02T00:34:13;9.50;99.90
8676;DHT22;4375;52.486;13.424;2024-03-02T00:36:39;9.50;99.90
8676;DHT22;4375;52.486;13.424;2024-03-02T00:39:05;9.50;99.90
8676;DHT22;4375;52.486;13.424;2024-03-02T00:41:33;9.50;99.90
8676;DHT22;4375;52.486;13.424;2024-03-02T00:44:04;9.50;99.90
8676;DHT22;4375;52.486;13.424;2024-03-02T00:46:38;9.40;99.90
8676;DHT22;4375;52.486;13.424;2024-03-02T00:49:17;9.40;99.90
8676;DHT22;4375;52.486;13.424;2024-03-02T00:51:46;9.40;99.90
8676;DHT22;4375;52.486;13.424;2024-03-02T00:54:14;9.40;99.90
8676;DHT22;4375;52.486;13.424;2024-03-02T00:56:41;9.50;99.90
8676;DHT22;4375;52.486;13.424;2024-03-02T00:59:07;9.50;99.90
8676;DHT22;4375;52.486;13.424;2024-03-02T01:01:34;9.50;99.90
8676;DHT22;4375;52.486;13.424;2024-03-02T01:04:00;9.50;99.90
8676;DHT22;4375;52.486;13.424;2024-03-02T01:06:25;9.50;99.90
8676;DHT22;4375;52.486;13.424;2024-03-02T01:08:51;9.40;99.90
8676;DHT22;4375;52.486;13.424;2024-03-02T01:11:17;9.40;99.90
8676;DHT22;4375;52.486;13.424;2024-03-02T01:13:44;9.50;99.90
8676;DHT22;4375;52.486;13.424;2024-03-02T01:16:10;9.50;99.90
8676;DHT22;4375;52.486;13.424;2024-03-02T01:18:36;9.40;99.90
8676;DHT22;4375;52.486;13.424;2024-03-02T01:21:01;9.50;99.90
8676;DHT22;4375;52.486;13.424;2024-03-02T01:23:27;9.50;99.90
8676;DHT22;4375;52.486;13.424;2024-03-02T01:25:53;9.40;99.90
8676;DHT22;4375;52.486;13.424;2024-03-02T01:28:18;9.40;99.90
8676;DHT22;4375;52.486;13.424;2024-03-02T01:30:44;9.50;99.90
8676;DHT22;4375;52.486;13.424;2024-03-02T01:33:10;9.40;99.90
8676;DHT22;4375;52.486;13.424;2024-03-02T01:35:36;9.40;99.90
8676;DHT22;4375;52.486;13.424;2024-03-02T01:38:03;9.40;99.90
8676;DHT22;4375;52.486;13.424;2024-03-02T01:40:29;9.40;99.90
8676;DHT22;4375;52.486;13.424;2024-03-02T01:42:55;9.40;99.90
8676;DHT22;4375;52.486;13.424;2024-03-02T01:45:21;9.50;99.90
8676;DHT22;4375;52.486;13.424;2024-03-02T01:47:47;9.40;99.90
8676;DHT22;4375;52.486;13.424;2024-03-02T01:50:13;9.40;99.90
8676;DHT22;4375;52.486;13.424;2024-03-02T01:52:39;9.40;99.90
8676;DHT22;4375;52.486;13.424;2024-03-02T01:55:05;9.40;99.90
8676;DHT22;4375;52.486;13.424;2024-03-02T01:57:34;9.50;99.90
8676;DHT22;4375;52.486;13.424;2024-03-02T02:00:00;9.40;99.90
8676;DHT22;4375;52.486;13.424;2024-03-02T02:02:26;9.40;99.90
8676;DHT22;4375;52.486;13.424;2024-03-02T02:04:51;9.40;99.90
8676;DHT22;4375;52.486;13.424;2024-03-02T02:07:17;9.40;99.90
8676;DHT22;4375;52.486;13.424;2024-03-02T02:09:43;9.40;99.90
8676;DHT22;4375;52.486;13.424;2024-03-02T02:12:09;9.40;99.90
8676;DHT22;4375;52.486;13.424;2024-03-02T02:14:36;9.30;99.90
8676;DHT22;4375;52.486;13.424;2024-03-02T02:17:01;9.30;99.90
8676;DHT22;4375;52.486;13.424;2024-03-02T02:19:27;9.40;99.90
8676;DHT22;4375;52.486;13.424;2024-03-02T02:21:54;9.30;99.90
8676;DHT22;4375;52.486;13.424;2024-03-02T02:24:19;9.30;99.90
8676;DHT22;4375;52.486;13.424;2024-03-02T02:26:45;9.30;99.90
8676;DHT22;4375;52.486;13.424;2024-03-02T02:29:11;9.30;99.90
8676;DHT22;4375;52.486;13.424;2024-03-02T02:31:40;9.30;99.90
8676;DHT22;4375;52.486;13.424;2024-03-02T02:34:06;9.40;99.90
8676;DHT22;4375;52.486;13.424;2024-03-02T02:36:38;9.40;99.90
8676;DHT22;4375;52.486;13.424;2024-03-02T02:39:06;9.40;99.90
8676;DHT22;4375;52.486;13.424;2024-03-02T02:41:33;9.30;99.90
8676;DHT22;4375;52.486;13.424;2024-03-02T02:43:58;9.20;99.90
8676;DHT22;4375;52.486;13.424;2024-03-02T02:46:24;9.20;99.90
8676;DHT22;4375;52.486;13.424;2024-03-02T02:48:49;9.20;99.90
8676;DHT22;4375;52.486;13.424;2024-03-02T02:51:17;9.20;99.90
8676;DHT22;4375;52.486;13.424;2024-03-02T02:53:42;9.20;99.90
8676;DHT22;4375;52.486;13.424;2024-03-02T02:56:08;9.20;99.90
8676;DHT22;4375;52.486;13.424;2024-03-02T02:58:34;9.20;99.90
8676;DHT22;4375;52.486;13.424;2024-03-02T03:01:00;9.20;99.90
8676;DHT22;4375;52.486;13.424;2024-03-02T03:03:25;9.10;99.90
8676;DHT22;4375;52.486;13.424;2024-03-02T03:05:51;9.10;99.90
8676;DHT22;4375;52.486;13.424;2024-03-02T03:08:16;9.10;99.90
8676;DHT22;4375;52.486;13.424;2024-03-02T03:10:42;9.10;99.90
8676;DHT22;4375;52.486;13.424;2024-03-02T03:13:08;9.20;99.90
8676;DHT22;4375;52.486;13.424;2024-03-02T03:15:37;9.20;99.90
8676;DHT22;4375;52.486;13.424;2024-03-02T03:18:06;9.20;99.90
8676;DHT22;4375;52.486;13.424;2024-03-02T03:20:33;9.20;99.90
8676;DHT22;4375;52.486;13.424;2024-03-02T03:22:59;9.10;99.90
8676;DHT22;4375;52.486;13.424;2024-03-02T03:25:25;9.20;99.90
8676;DHT22;4375;52.486;13.424;2024-03-02T03:27:51;9.20;99.90
8676;DHT22;4375;52.486;13.424;2024-03-02T03:30:18;9.20;99.90
8676;DHT22;4375;52.486;13.424;2024-03-02T03:32:43;9.20;99.90
8676;DHT22;4375;52.486;13.424;2024-03-02T03:35:09;9.20;99.90
8676;DHT22;4375;52.486;13.424;2024-03-02T03:37:35;9.30;99.90
8676;DHT22;4375;52.486;13.424;2024-03-02T03:40:04;9.20;99.90
8676;DHT22;4375;52.486;13.424;2024-03-02T03:42:38;9.30;99.90
8676;DHT22;4375;52.486;13.424;2024-03-02T03:45:05;9.30;99.90
8676;DHT22;4375;52.486;13.424;2024-03-02T03:47:34;9.30;99.90
8676;DHT22;4375;52.486;13.424;2024-03-02T03:49:59;9.40;99.90
8676;DHT22;4375;52.486;13.424;2024-03-02T03:52:25;9.40;99.90
8676;DHT22;4375;52.486;13.424;2024-03-02T03:54:51;9.30;99.90
8676;DHT22;4375;52.486;13.424;2024-03-02T03:57:17;9.30;99.90
8676;DHT22;4375;52.486;13.424;2024-03-02T03:59:43;9.40;99.90
8676;DHT22;4375;52.486;13.424;2024-03-02T04:02:09;9.40;99.90
8676;DHT22;4375;52.486;13.424;2024-03-02T04:04:35;9.40;99.90
8676;DHT22;4375;52.486;13.424;2024-03-02T04:07:01;9.40;99.90
8676;DHT22;4375;52.486;13.424;2024-03-02T04:09:26;9.40;99.90
8676;DHT22;4375;52.486;13.424;2024-03-02T04:11:52;9.40;99.90
8676;DHT22;4375;52.486;13.424;2024-03-02T04:14:18;9.50;99.90
8676;DHT22;4375;52.486;13.424;2024-03-02T04:16:44;9.40;99.90
8676;DHT22;4375;52.486;13.424;2024-03-02T04:19:12;9.40;99.90
8676;DHT22;4375;52.486;13.424;2024-03-02T04:21:38;9.40;99.90
8676;DHT22;4375;52.486;13.424;2024-03-02T04:24:04;9.40;99.90
8676;DHT22;4375;52.486;13.424;2024-03-02T04:26:29;9.50;99.90
8676;DHT22;4375;52.486;13.424;2024-03-02T04:28:55;9.50;99.90
8676;DHT22;4375;52.486;13.424;2024-03-02T04:31:21;9.50;99.90
8676;DHT22;4375;52.486;13.424;2024-03-02T04:33:46;9.40;99.90
8676;DHT22;4375;52.486;13.424;2024-03-02T04:36:12;9.50;99.90
8676;DHT22;4375;52.486;13.424;2024-03-02T04:38:38;9.50;99.90
8676;DHT22;4375;52.486;13.424;2024-03-02T04:41:04;9.50;99.90
8676;DHT22;4375;52.486;13.424;2024-03-02T04:43:34;9.50;99.90
8676;DHT22;4375;52.486;13.424;2024-03-02T04:46:00;9.50;99.90
8676;DHT22;4375;52.486;13.424;2024-03-02T04:48:25;9.40;99.90
8676;DHT22;4375;52.486;13.424;2024-03-02T04:50:51;9.40;99.90
8676;DHT22;4375;52.486;13.424;2024-03-02T04:53:17;9.40;99.90
8676;DHT22;4375;52.486;13.424;2024-03-02T04:55:42;9.50;99.90
8676;DHT22;4375;52.486;13.424;2024-03-02T04:58:08;9.50;99.90
8676;DHT22;4375;52.486;13.424;2024-03-02T05:00:34;9.50;99.90
8676;DHT22;4375;52.486;13.424;2024-03-02T05:03:00;9.50;99.90
8676;DHT22;4375;52.486;13.424;2024-03-02T05:05:26;9.50;99.90
8676;DHT22;4375;52.486;13.424;2024-03-02T05:07:54;9.50;99.90
8676;DHT22;4375;52.486;13.424;2024-03-02T05:10:20;9.60;99.90
8676;DHT22;4375;52.486;13.424;2024-03-02T05:12:46;9.60;99.90
8676;DHT22;4375;52.486;13.424;2024-03-02T05:15:13;9.60;99.90
8676;DHT22;4375;52.486;13.424;2024-03-02T05:17:42;9.60;99.90
8676;DHT22;4375;52.486;13.424;2024-03-02T05:20:11;9.50;99.90
8676;DHT22;4375;52.486;13.424;2024-03-02T05:22:37;9.60;99.90
8676;DHT22;4375;52.486;13.424;2024-03-02T05:25:04;9.60;99.90
8676;DHT22;4375;52.486;13.424;2024-03-02T05:27:29;9.60;99.90
8676;DHT22;4375;52.486;13.424;2024-03-02T05:29:55;9.60;99.90
8676;DHT22;4375;52.486;13.424;2024-03-02T05:32:21;9.70;99.90
8676;DHT22;4375;52.486;13.424;2024-03-02T05:34:47;9.60;99.90
8676;DHT22;4375;52.486;13.424;2024-03-02T05:37:12;9.50;99.90
8676;DHT22;4375;52.486;13.424;2024-03-02T05:39:38;9.50;99.90
8676;DHT22;4375;52.486;13.424;2024-03-02T05:42:04;9.50;99.90
8676;DHT22;4375;52.486;13.424;2024-03-02T05:44:30;9.50;99.90
8676;DHT22;4375;52.486;13.424;2024-03-02T05:46:55;9.50;99.90
8676;DHT22;4375;52.486;13.424;2024-03-02T05:49:21;9.50;99.90
8676;DHT22;4375;52.486;13.424;2024-03-02T05:51:47;9.50;99.90
8676;DHT22;4375;52.486;13.424;2024-03-02T05:54:16;9.50;99.90
8676;DHT22;4375;52.486;13.424;2024-03-02T05:56:41;9.40;99.90
8676;DHT22;4375;52.486;13.424;2024-03-02T05:59:07;9.50;99.90
8676;DHT22;4375;52.486;13.424;2024-03-02T06:01:45;9.40;99.90
8676;DHT22;4375;52.486;13.424;2024-03-02T06:04:17;9.50;99.90
8676;DHT22;4375;52.486;13.424;2024-03-02T06:06:43;9.40;99.90
8676;DHT22;4375;52.486;13.424;2024-03-02T06:09:09;9.40;99.90
8676;DHT22;4375;52.486;13.424;2024-03-02T06:11:39;9.40;99.90
8676;DHT22;4375;52.486;13.424;2024-03-02T06:14:05;9.40;99.90
8676;DHT22;4375;52.486;13.424;2024-03-02T06:16:33;9.40;99.90
8676;DHT22;4375;52.486;13.424;2024-03-02T06:18:59;9.40;99.90
8676;DHT22;4375;52.486;13.424;2024-03-02T06:21:25;9.40;99.90
8676;DHT22;4375;52.486;13.424;2024-03-02T06:23:51;9.30;99.90
8676;DHT22;4375;52.486;13.424;2024-03-02T06:26:17;9.30;99.90
8676;DHT22;4375;52.486;13.424;2024-03-02T06:28:46;9.30;99.90
8676;DHT22;4375;52.486;13.424;2024-03-02T06:31:12;9.40;99.90
8676;DHT22;4375;52.486;13.424;2024-03-02T06:33:37;9.40;99.90
8676;DHT22;4375;52.486;13.424;2024-03-02T06:36:03;9.50;99.90
8676;DHT22;4375;52.486;13.424;2024-03-02T06:38:29;9.50;99.90
8676;DHT22;4375;52.486;13.424;2024-03-02T06:40:57;9.50;99.90
8676;DHT22;4375;52.486;13.424;2024-03-02T06:43:23;9.40;99.90
8676;DHT22;4375;52.486;13.424;2024-03-02T06:46:24;9.50;99.90
8676;DHT22;4375;52.486;13.424;2024-03-02T06:55:14;9.40;99.90
8676;DHT22;4375;52.486;13.424;2024-03-02T07:01:16;9.40;99.90
8676;DHT22;4375;52.486;13.424;2024-03-02T07:07:11;9.40;99.90
8676;DHT22;4375;52.486;13.424;2024-03-02T07:10:02;9.50;99.90
8676;DHT22;4375;52.486;13.424;2024-03-02T07:12:50;9.40;99.90
8676;DHT22;4375;52.486;13.424;2024-03-02T07:15:24;9.50;99.90
8676;DHT22;4375;52.486;13.424;2024-03-02T07:21:47;9.40;99.90
8676;DHT22;4375;52.486;13.424;2024-03-02T07:24:23;9.40;99.90
8676;DHT22;4375;52.486;13.424;2024-03-02T07:27:19;9.30;99.90
8676;DHT22;4375;52.486;13.424;2024-03-02T07:30:03;9.40;99.90
8676;DHT22;4375;52.486;13.424;2024-03-02T07:32:34;9.40;99.90
8676;DHT22;4375;52.486;13.424;2024-03-02T07:35:08;9.40;99.90
8676;DHT22;4375;52.486;13.424;2024-03-02T07:40:56;9.40;99.90
8676;DHT22;4375;52.486;13.424;2024-03-02T07:43:37;9.50;99.90
8676;DHT22;4375;52.486;13.424;2024-03-02T07:46:21;9.40;99.90
8676;DHT22;4375;52.486;13.424;2024-03-02T07:48:52;9.50;99.90
8676;DHT22;4375;52.486;13.424;2024-03-02T07:51:29;9.50;99.90
8676;DHT22;4375;52.486;13.424;2024-03-02T07:54:11;9.50;99.90
8676;DHT22;4375;52.486;13.424;2024-03-02T07:56:53;9.50;99.90
8676;DHT22;4375;52.486;13.424;2024-03-02T07:59:54;9.50;99.90
8676;DHT22;4375;52.486;13.424;2024-03-02T08:02:38;9.50;99.90
8676;DHT22;4375;52.486;13.424;2024-03-02T08:05:12;9.60;99.90
8676;DHT22;4375;52.486;13.424;2024-03-02T08:08:09;9.50;99.90
8676;DHT22;4375;52.486;13.424;2024-03-02T08:10:58;9.60;99.90
8676;DHT22;4375;52.486;13.424;2024-03-02T08:13:37;9.70;99.90
8676;DHT22;4375;52.486;13.424;2024-03-02T08:19:38;9.60;99.90
8676;DHT22;4375;52.486;13.424;2024-03-02T08:22:25;9.60;99.90
8676;DHT22;4375;52.486;13.424;2024-03-02T08:25:11;9.70;99.90
8676;DHT22;4375;52.486;13.424;2024-03-02T08:27:47;9.60;99.90
8676;DHT22;4375;52.486;13.424;2024-03-02T08:30:51;9.70;99.90
8676;DHT22;4375;52.486;13.424;2024-03-02T08:33:33;9.70;99.90
8676;DHT22;4375;52.486;13.424;2024-03-02T08:36:15;9.80;99.90
8676;DHT22;4375;52.486;13.424;2024-03-02T08:38:43;9.70;99.90
8676;DHT22;4375;52.486;13.424;2024-03-02T08:44:09;9.60;99.90
8676;DHT22;4375;52.486;13.424;2024-03-02T08:46:36;9.60;99.90
8676;DHT22;4375;52.486;13.424;2024-03-02T08:49:02;9.80;99.90
8676;DHT22;4375;52.486;13.424;2024-03-02T08:51:28;9.70;99.90
8676;DHT22;4375;52.486;13.424;2024-03-02T08:53:54;9.70;99.90
8676;DHT22;4375;52.486;13.424;2024-03-02T08:56:19;9.80;99.90
8676;DHT22;4375;52.486;13.424;2024-03-02T08:58:47;9.80;99.90
8676;DHT22;4375;52.486;13.424;2024-03-02T09:01:12;9.80;99.90
8676;DHT22;4375;52.486;13.424;2024-03-02T09:03:38;9.80;99.90
8676;DHT22;4375;52.486;13.424;2024-03-02T09:06:04;9.70;99.90
8676;DHT22;4375;52.486;13.424;2024-03-02T09:08:29;9.70;99.90
8676;DHT22;4375;52.486;13.424;2024-03-02T09:10:56;9.70;99.90
8676;DHT22;4375;52.486;13.424;2024-03-02T09:13:21;9.60;99.90
8676;DHT22;4375;52.486;13.424;2024-03-02T09:15:47;9.80;99.90
8676;DHT22;4375;52.486;13.424;2024-03-02T09:18:13;9.90;99.90
8676;DHT22;4375;52.486;13.424;2024-03-02T09:20:39;9.90;99.90
8676;DHT22;4375;52.486;13.424;2024-03-02T09:23:04;10.00;99.90
8676;DHT22;4375;52.486;13.424;2024-03-02T09:25:30;9.90;99.90
8676;DHT22;4375;52.486;13.424;2024-03-02T09:27:56;10.00;99.90
8676;DHT22;4375;52.486;13.424;2024-03-02T09:30:22;10.10;99.90
8676;DHT22;4375;52.486;13.424;2024-03-02T09:32:47;10.10;99.90
8676;DHT22;4375;52.486;13.424;2024-03-02T09:35:13;10.20;99.90
8676;DHT22;4375;52.486;13.424;2024-03-02T09:37:38;10.20;99.90
8676;DHT22;4375;52.486;13.424;2024-03-02T09:40:04;10.30;99.90
8676;DHT22;4375;52.486;13.424;2024-03-02T09:42:32;10.40;99.90
8676;DHT22;4375;52.486;13.424;2024-03-02T09:44:58;10.50;99.90
8676;DHT22;4375;52.486;13.424;2024-03-02T09:47:24;10.70;99.90
8676;DHT22;4375;52.486;13.424;2024-03-02T09:49:50;10.90;99.90
8676;DHT22;4375;52.486;13.424;2024-03-02T09:52:16;11.00;99.90
8676;DHT22;4375;52.486;13.424;2024-03-02T09:54:41;11.00;99.90
8676;DHT22;4375;52.486;13.424;2024-03-02T09:57:07;10.90;99.90
8676;DHT22;4375;52.486;13.424;2024-03-02T09:59:33;10.90;99.90
8676;DHT22;4375;52.486;13.424;2024-03-02T10:02:00;11.10;99.90
8676;DHT22;4375;52.486;13.424;2024-03-02T10:04:26;10.90;99.90
8676;DHT22;4375;52.486;13.424;2024-03-02T10:07:09;11.00;99.90
8676;DHT22;4375;52.486;13.424;2024-03-02T10:09:36;11.20;99.90
8676;DHT22;4375;52.486;13.424;2024-03-02T10:12:04;11.30;99.90
8676;DHT22;4375;52.486;13.424;2024-03-02T10:14:33;11.30;99.90
8676;DHT22;4375;52.486;13.424;2024-03-02T10:17:09;11.50;99.90
8676;DHT22;4375;52.486;13.424;2024-03-02T10:19:36;11.60;99.90
8676;DHT22;4375;52.486;13.424;2024-03-02T10:22:04;11.70;99.90
8676;DHT22;4375;52.486;13.424;2024-03-02T10:24:49;11.60;99.90
8676;DHT22;4375;52.486;13.424;2024-03-02T10:29:41;11.50;99.90
8676;DHT22;4375;52.486;13.424;2024-03-02T10:32:10;11.60;99.90
8676;DHT22;4375;52.486;13.424;2024-03-02T10:34:38;11.70;99.90
8676;DHT22;4375;52.486;13.424;2024-03-02T10:37:05;11.70;99.90
8676;DHT22;4375;52.486;13.424;2024-03-02T10:39:31;11.80;99.90
8676;DHT22;4375;52.486;13.424;2024-03-02T10:41:58;11.80;99.90
8676;DHT22;4375;52.486;13.424;2024-03-02T10:44:25;11.80;99.90
8676;DHT22;4375;52.486;13.424;2024-03-02T10:46:52;11.60;99.90
8676;DHT22;4375;52.486;13.424;2024-03-02T10:49:19;11.70;99.90
8676;DHT22;4375;52.486;13.424;2024-03-02T10:51:46;12.10;99.90
8676;DHT22;4375;52.486;13.424;2024-03-02T10:54:11;12.10;99.90
8676;DHT22;4375;52.486;13.424;2024-03-02T10:56:42;12.00;99.90
8676;DHT22;4375;52.486;13.424;2024-03-02T10:59:21;12.00;99.90
8676;DHT22;4375;52.486;13.424;2024-03-02T11:01:50;12.20;99.90
8676;DHT22;4375;52.486;13.424;2024-03-02T11:04:18;12.10;99.90
8676;DHT22;4375;52.486;13.424;2024-03-02T11:06:51;12.30;99.90
8676;DHT22;4375;52.486;13.424;2024-03-02T11:09:25;12.60;99.90
8676;DHT22;4375;52.486;13.424;2024-03-02T11:12:28;12.70;99.90
8676;DHT22;4375;52.486;13.424;2024-03-02T11:14:55;12.50;99.90
8676;DHT22;4375;52.486;13.424;2024-03-02T11:17:21;12.70;99.90
8676;DHT22;4375;52.486;13.424;2024-03-02T11:19:48;12.70;99.90
8676;DHT22;4375;52.486;13.424;2024-03-02T11:22:15;12.70;99.90
8676;DHT22;4375;52.486;13.424;2024-03-02T11:24:51;12.70;99.90
8676;DHT22;4375;52.486;13.424;2024-03-02T11:33:03;12.70;99.90
8676;DHT22;4375;52.486;13.424;2024-03-02T11:35:36;12.60;99.90
8676;DHT22;4375;52.486;13.424;2024-03-02T11:38:06;12.50;99.90
8676;DHT22;4375;52.486;13.424;2024-03-02T11:40:32;12.70;99.90
8676;DHT22;4375;52.486;13.424;2024-03-02T11:43:00;12.70;99.90
8676;DHT22;4375;52.486;13.424;2024-03-02T11:45:29;12.90;99.90
8676;DHT22;4375;52.486;13.424;2024-03-02T11:47:59;12.80;99.90
8676;DHT22;4375;52.486;13.424;2024-03-02T11:50:46;12.70;99.90
8676;DHT22;4375;52.486;13.424;2024-03-02T11:53:11;12.90;99.90
8676;DHT22;4375;52.486;13.424;2024-03-02T11:55:39;12.60;99.90
8676;DHT22;4375;52.486;13.424;2024-03-02T11:58:06;12.80;99.90
8676;DHT22;4375;52.486;13.424;2024-03-02T12:00:32;12.80;99.90
8676;DHT22;4375;52.486;13.424;2024-03-02T12:03:03;13.00;99.90
8676;DHT22;4375;52.486;13.424;2024-03-02T12:05:30;12.90;99.90
8676;DHT22;4375;52.486;13.424;2024-03-02T12:07:57;13.10;99.90
8676;DHT22;4375;52.486;13.424;2024-03-02T12:10:23;12.80;99.90
8676;DHT22;4375;52.486;13.424;2024-03-02T12:12:55;12.80;99.90
8676;DHT22;4375;52.486;13.424;2024-03-02T12:15:32;12.80;99.90
8676;DHT22;4375;52.486;13.424;2024-03-02T12:17:59;12.90;99.90
8676;DHT22;4375;52.486;13.424;2024-03-02T12:20:26;13.10;99.90
8676;DHT22;4375;52.486;13.424;2024-03-02T12:22:53;13.10;99.90
8676;DHT22;4375;52.486;13.424;2024-03-02T12:25:20;13.20;99.90
8676;DHT22;4375;52.486;13.424;2024-03-02T12:27:47;13.20;99.90
8676;DHT22;4375;52.486;13.424;2024-03-02T12:30:16;13.30;99.90
8676;DHT22;4375;52.486;13.424;2024-03-02T12:32:41;13.40;99.90
8676;DHT22;4375;52.486;13.424;2024-03-02T12:35:07;13.30;99.90
8676;DHT22;4375;52.486;13.424;2024-03-02T12:37:37;13.20;99.90
8676;DHT22;4375;52.486;13.424;2024-03-02T12:40:07;13.20;99.90
8676;DHT22;4375;52.486;13.424;2024-03-02T12:42:35;13.20;99.90
8676;DHT22;4375;52.486;13.424;2024-03-02T12:45:02;13.50;99.90
8676;DHT22;4375;52.486;13.424;2024-03-02T12:47:29;13.70;99.90
8676;DHT22;4375;52.486;13.424;2024-03-02T12:49:55;13.80;99.90
8676;DHT22;4375;52.486;13.424;2024-03-02T12:52:24;13.70;99.90
8676;DHT22;4375;52.486;13.424;2024-03-02T12:54:50;13.70;99.90
8676;DHT22;4375;52.486;13.424;2024-03-02T12:57:19;13.80;99.90
8676;DHT22;4375;52.486;13.424;2024-03-02T12:59:48;13.90;99.90
8676;DHT22;4375;52.486;13.424;2024-03-02T13:02:20;13.80;99.90
8676;DHT22;4375;52.486;13.424;2024-03-02T13:04:53;14.10;99.90
8676;DHT22;4375;52.486;13.424;2024-03-02T13:07:59;14.10;99.90
8676;DHT22;4375;52.486;13.424;2024-03-02T13:10:38;14.00;99.90
8676;DHT22;4375;52.486;13.424;2024-03-02T13:13:09;13.90;99.90
8676;DHT22;4375;52.486;13.424;2024-03-02T13:15:55;13.90;99.90
8676;DHT22;4375;52.486;13.424;2024-03-02T13:18:44;14.00;99.90
8676;DHT22;4375;52.486;13.424;2024-03-02T13:21:40;13.90;99.90
8676;DHT22;4375;52.486;13.424;2024-03-02T13:27:04;13.90;99.90
8676;DHT22;4375;52.486;13.424;2024-03-02T13:29:29;13.90;99.90
8676;DHT22;4375;52.486;13.424;2024-03-02T13:31:57;14.00;99.90
8676;DHT22;4375;52.486;13.424;2024-03-02T13:34:26;13.90;99.90
8676;DHT22;4375;52.486;13.424;2024-03-02T13:36:51;13.90;99.90
8676;DHT22;4375;52.486;13.424;2024-03-02T13:39:17;13.90;99.90
8676;DHT22;4375;52.486;13.424;2024-03-02T13:41:43;13.90;99.90
8676;DHT22;4375;52.486;13.424;2024-03-02T13:44:17;13.70;99.90
8676;DHT22;4375;52.486;13.424;2024-03-02T13:46:43;13.50;99.90
8676;DHT22;4375;52.486;13.424;2024-03-02T13:49:11;13.20;99.90
8676;DHT22;4375;52.486;13.424;2024-03-02T13:51:37;13.50;99.90
8676;DHT22;4375;52.486;13.424;2024-03-02T13:54:02;13.60;99.90
8676;DHT22;4375;52.486;13.424;2024-03-02T13:56:29;13.60;99.90
8676;DHT22;4375;52.486;13.424;2024-03-02T13:58:55;13.60;99.90
8676;DHT22;4375;52.486;13.424;2024-03-02T14:01:20;13.80;99.90
8676;DHT22;4375;52.486;13.424;2024-03-02T14:03:46;13.80;99.90
8676;DHT22;4375;52.486;13.424;2024-03-02T14:06:12;13.90;99.90
8676;DHT22;4375;52.486;13.424;2024-03-02T14:08:38;13.90;99.90
8676;DHT22;4375;52.486;13.424;2024-03-02T14:11:03;13.90;99.90
8676;DHT22;4375;52.486;13.424;2024-03-02T14:13:29;13.90;99.90
8676;DHT22;4375;52.486;13.424;2024-03-02T14:18:24;13.70;99.90
8676;DHT22;4375;52.486;13.424;2024-03-02T14:20:50;13.70;99.90
8676;DHT22;4375;52.486;13.424;2024-03-02T14:23:18;13.80;99.90
8676;DHT22;4375;52.486;13.424;2024-03-02T14:25:52;13.80;99.90
8676;DHT22;4375;52.486;13.424;2024-03-02T14:28:26;13.70;99.90
8676;DHT22;4375;52.486;13.424;2024-03-02T14:31:02;13.70;99.90
8676;DHT22;4375;52.486;13.424;2024-03-02T14:33:55;13.60;99.90
8676;DHT22;4375;52.486;13.424;2024-03-02T14:36:32;13.70;99.90
8676;DHT22;4375;52.486;13.424;2024-03-02T14:41:50;13.60;99.90
8676;DHT22;4375;52.486;13.424;2024-03-02T14:44:15;13.50;99.90
8676;DHT22;4375;52.486;13.424;2024-03-02T14:46:45;13.40;99.90
8676;DHT22;4375;52.486;13.424;2024-03-02T14:49:20;13.30;99.90
8676;DHT22;4375;52.486;13.424;2024-03-02T14:52:13;13.40;99.90
8676;DHT22;4375;52.486;13.424;2024-03-02T14:55:07;13.30;99.90
8676;DHT22;4375;52.486;13.424;2024-03-02T14:57:38;13.20;99.90
8676;DHT22;4375;52.486;13.424;2024-03-02T15:00:15;13.10;99.90
8676;DHT22;4375;52.486;13.424;2024-03-02T15:03:09;13.00;99.90
8676;DHT22;4375;52.486;13.424;2024-03-02T15:05:38;12.90;99.90
8676;DHT22;4375;52.486;13.424;2024-03-02T15:08:37;12.90;99.90
8676;DHT22;4375;52.486;13.424;2024-03-02T15:11:21;12.80;99.90
8676;DHT22;4375;52.486;13.424;2024-03-02T15:13:52;12.80;99.90
8676;DHT22;4375;52.486;13.424;2024-03-02T15:16:21;12.80;99.90
8676;DHT22;4375;52.486;13.424;2024-03-02T15:19:09;12.90;99.90
8676;DHT22;4375;52.486;13.424;2024-03-02T15:21:45;12.80;99.90
8676;DHT22;4375;52.486;13.424;2024-03-02T15:24:24;12.90;99.90
8676;DHT22;4375;52.486;13.424;2024-03-02T15:27:00;12.80;99.90
8676;DHT22;4375;52.486;13.424;2024-03-02T15:29:35;12.80;99.90
8676;DHT22;4375;52.486;13.424;2024-03-02T15:35:23;12.90;99.90
8676;DHT22;4375;52.486;13.424;2024-03-02T15:38:09;12.80;99.90
8676;DHT22;4375;52.486;13.424;2024-03-02T15:40:45;12.80;99.90
8676;DHT22;4375;52.486;13.424;2024-03-02T15:43:34;12.80;99.90
8676;DHT22;4375;52.486;13.424;2024-03-02T15:46:09;12.80;99.90
8676;DHT22;4375;52.486;13.424;2024-03-02T15:49:02;12.80;99.90
8676;DHT22;4375;52.486;13.424;2024-03-02T15:51:38;12.80;99.90
8676;DHT22;4375;52.486;13.424;2024-03-02T15:54:11;12.80;99.90
8676;DHT22;4375;52.486;13.424;2024-03-02T15:56:50;12.80;99.90
8676;DHT22;4375;52.486;13.424;2024-03-02T15:59:38;12.80;99.90
8676;DHT22;4375;52.486;13.424;2024-03-02T16:02:07;12.70;99.90
8676;DHT22;4375;52.486;13.424;2024-03-02T16:04:51;12.70;99.90
8676;DHT22;4375;52.486;13.424;2024-03-02T16:07:25;12.60;99.90
8676;DHT22;4375;52.486;13.424;2024-03-02T16:10:15;12.50;99.90
8676;DHT22;4375;52.486;13.424;2024-03-02T16:12:57;12.40;99.90
8676;DHT22;4375;52.486;13.424;2024-03-02T16:15:39;12.30;99.90
8676;DHT22;4375;52.486;13.424;2024-03-02T16:20:59;12.20;99.90
8676;DHT22;4375;52.486;13.424;2024-03-02T16:23:28;12.20;99.90
8676;DHT22;4375;52.486;13.424;2024-03-02T16:28:59;12.10;99.90
8676;DHT22;4375;52.486;13.424;2024-03-02T16:31:32;12.10;99.90
8676;DHT22;4375;52.486;13.424;2024-03-02T16:36:54;12.00;99.90
8676;DHT22;4375;52.486;13.424;2024-03-02T16:39:33;12.00;99.90
8676;DHT22;4375;52.486;13.424;2024-03-02T16:42:04;12.00;99.90
8676;DHT22;4375;52.486;13.424;2024-03-02T16:44:49;11.90;99.90
8676;DHT22;4375;52.486;13.424;2024-03-02T16:47:33;11.90;99.90
8676;DHT22;4375;52.486;13.424;2024-03-02T16:50:15;11.80;99.90
8676;DHT22;4375;52.486;13.424;2024-03-02T16:52:52;11.80;99.90
8676;DHT22;4375;52.486;13.424;2024-03-02T16:55:35;11.70;99.90
8676;DHT22;4375;52.486;13.424;2024-03-02T16:58:13;11.80;99.90
8676;DHT22;4375;52.486;13.424;2024-03-02T17:00:54;11.80;99.90
8676;DHT22;4375;52.486;13.424;2024-03-02T17:06:10;11.70;99.90
8676;DHT22;4375;52.486;13.424;2024-03-02T17:08:38;11.70;99.90
8676;DHT22;4375;52.486;13.424;2024-03-02T17:11:15;11.80;99.90
8676;DHT22;4375;52.486;13.424;2024-03-02T17:13:43;11.70;99.90